Williamsville, NY (14221)

6:32 PM EDT on August 23, 2016 (GMT -0400)
NorthWest Williamsville | | Change Station

Elev 594 ft 43.01 °N, 78.76 °W | Updated 363 days ago

Clear
Clear
72 °F
Feels Like 72 °F
N
7
Wind Variable Wind from SSW
Gusts mph

Today
High -- | Low -- °F
--% Chance of Precip.
Yesterday
High -- | Low -- °F
Precip. -- in
Pressure 30.23 in
Visibility 10.0 miles
Clouds Few 4500 ft
Few 28000 ft
Dew Point 58 °F
Humidity 61%
Rainfall in
Snow Depth Not available.
6:30 AM 8:03 PM
Waning Gibbous, 64% visible
METAR KBUF 232154Z 25009KT 10SM FEW045 FEW280 26/12 A3024 RMK AO2 SLP237 T02610117
Pressure 30.23 in
Visibility 10.0 miles
Clouds Few 4500 ft
Few 28000 ft
Dew Point 58 °F
Humidity 61%
Rainfall in
Snow Depth Not available.
6:30 AM 8:03 PM
Waning Gibbous, 64% visible
METAR KBUF 232154Z 25009KT 10SM FEW045 FEW280 26/12 A3024 RMK AO2 SLP237 T02610117

10-Day Weather Forecast

Almanac

Astronomy

Aug. 23, 2016 Rise Set
Actual Time
Civil Twilight
Nautical Twilight
Astronomical Twilight
Moon
Length of Visible Light
Length of Day
Tomorrow will be .
, % of the Moon is Illuminated

Today's Extremes

State Highs State Lows

Community

WunderPhotos

Upload Photos

1,934,486 photos uploaded!

WunderBlog® & News

Nearby

Air Quality

  Air Quality AQ Index Pollutant
Not available.

Snow Depth

Station Depth Elevation

Earthquake Activity

City Distance Mag. Time & Date
Minimum magnitude displayed is 2.5.

Coastal Water Temperatures

Place Temperature

Stations

Nearby Weather Stations

Station Location Temp. Windchill Dew Point Humidity Wind Precip. Elev Updated Type
                   

Watches & Warnings

There are currently no watches in effect.